This is the latest recevied weather packets stored in our database for station/object N9OJR. If no packets are shown the sender has not sent any weather packets the latest 10 day(s).
| Time | Temp. | Humidity | Pressure | Rain* | Wind** | Luminosity | Snow |
|---|---|---|---|---|---|---|---|
| 1777067085 | 20° C | 79% | 1003.5 hPa | 0 mm | - | 49 W/m² | - |
| 1777066781 | 20.56° C | 78% | 1003.7 hPa | 0 mm | - | 56 W/m² | - |
| 1777066477 | 20.56° C | 76% | 1003.6 hPa | 0 mm | - | 78 W/m² | - |
| 1777066172 | 21.11° C | 74% | 1003.7 hPa | 0 mm | - | 108 W/m² | - |
| 1777065871 | 22.22° C | 71% | 1003.7 hPa | 0 mm | - | 80 W/m² | - |
| 1777065567 | 25.56° C | 62% | 1004 hPa | 0 mm | - | 73 W/m² | - |
| 1777065262 | 26.11° C | 53% | 1003.4 hPa | 0 mm | - | 101 W/m² | - |
| 1777064959 | 27.78° C | 50% | 1003.4 hPa | 0 mm | - | 158 W/m² | - |
| 1777064656 | 27.22° C | 50% | 1003.1 hPa | 0 mm | - | 495 W/m² | - |
| 1777064351 | 26.11° C | 50% | 1003.2 hPa | 0 mm | - | 521 W/m² | - |
| 1777064047 | 26.11° C | 51% | 1003.4 hPa | 0 mm | - | 273 W/m² | - |
| 1777063741 | 26.11° C | 53% | 1003.4 hPa | 0 mm | - | 484 W/m² | - |
| 1777063437 | 27.22° C | 51% | 1003.5 hPa | 0 mm | - | 207 W/m² | - |
| 1777063133 | 26.67° C | 50% | 1003.4 hPa | 0 mm | - | 235 W/m² | - |
| 1777062830 | 26.67° C | 50% | 1003.5 hPa | 0 mm | - | 439 W/m² | - |
| 1777062525 | 27.22° C | 49% | 1003.6 hPa | 0 mm | - | 496 W/m² | - |
| 1777062219 | 27.22° C | 53% | 1003.6 hPa | 0 mm | - | 505 W/m² | - |
| 1777061917 | 26.67° C | 50% | 1003.4 hPa | 0 mm | - | 474 W/m² | - |
| 1777061612 | 26.67° C | 50% | 1003.7 hPa | 0 mm | - | 529 W/m² | - |
| 1777061309 | 26.67° C | 49% | 1003.8 hPa | 0 mm | - | 518 W/m² | - |
| 1777061004 | 26.67° C | 53% | 1003.5 hPa | 0 mm | - | 544 W/m² | - |
| 1777060695 | 26.67° C | 51% | 1003.5 hPa | 0 mm | - | 499 W/m² | - |
| 1777060388 | 26.67° C | 51% | 1004 hPa | 0 mm | - | 428 W/m² | - |
| 1777060081 | 26.67° C | 49% | 1003.9 hPa | 0 mm | - | 435 W/m² | - |
| 1777059776 | 26.67° C | 51% | 1003.8 hPa | 0 mm | - | 496 W/m² | - |
* Rain latest hour (hover to see other rain measurements)
** Current wind speed in m/s (hover to see current wind gust speed)